sensor_id;sensor_type;location;lat;lon;timestamp;P1;durP1;ratioP1;P2;durP2;ratioP2
38162;SDS011;23977;53.078;18.248;2024-02-26T00:00:09;52.05;;;28.15;;
38162;SDS011;23977;53.078;18.248;2024-02-26T00:02:36;52.33;;;26.35;;
38162;SDS011;23977;53.078;18.248;2024-02-26T00:05:06;48.35;;;26.35;;
38162;SDS011;23977;53.078;18.248;2024-02-26T00:07:32;49.83;;;26.75;;
38162;SDS011;23977;53.078;18.248;2024-02-26T00:09:57;54.70;;;27.33;;
38162;SDS011;23977;53.078;18.248;2024-02-26T00:12:23;56.53;;;29.17;;
38162;SDS011;23977;53.078;18.248;2024-02-26T00:14:48;53.22;;;27.85;;
38162;SDS011;23977;53.078;18.248;2024-02-26T00:17:15;49.47;;;26.55;;
38162;SDS011;23977;53.078;18.248;2024-02-26T00:19:41;51.67;;;27.85;;
38162;SDS011;23977;53.078;18.248;2024-02-26T00:22:07;53.00;;;28.13;;
38162;SDS011;23977;53.078;18.248;2024-02-26T00:24:32;60.47;;;29.02;;
38162;SDS011;23977;53.078;18.248;2024-02-26T00:26:58;60.13;;;28.55;;
38162;SDS011;23977;53.078;18.248;2024-02-26T00:29:24;48.50;;;26.45;;
38162;SDS011;23977;53.078;18.248;2024-02-26T00:31:51;47.22;;;25.70;;
38162;SDS011;23977;53.078;18.248;2024-02-26T00:34:16;46.22;;;26.15;;
38162;SDS011;23977;53.078;18.248;2024-02-26T00:36:42;49.70;;;26.30;;
38162;SDS011;23977;53.078;18.248;2024-02-26T00:39:08;45.67;;;24.20;;
38162;SDS011;23977;53.078;18.248;2024-02-26T00:41:37;43.90;;;24.05;;
38162;SDS011;23977;53.078;18.248;2024-02-26T00:44:03;39.28;;;22.65;;
38162;SDS011;23977;53.078;18.248;2024-02-26T00:46:29;40.65;;;22.63;;
38162;SDS011;23977;53.078;18.248;2024-02-26T00:48:54;37.20;;;21.38;;
38162;SDS011;23977;53.078;18.248;2024-02-26T00:51:19;42.28;;;22.55;;
38162;SDS011;23977;53.078;18.248;2024-02-26T00:53:45;39.75;;;22.45;;
38162;SDS011;23977;53.078;18.248;2024-02-26T00:56:11;48.92;;;24.88;;
38162;SDS011;23977;53.078;18.248;2024-02-26T00:58:36;40.08;;;23.17;;
38162;SDS011;23977;53.078;18.248;2024-02-26T01:01:02;39.80;;;23.35;;
38162;SDS011;23977;53.078;18.248;2024-02-26T01:03:28;44.80;;;24.73;;
38162;SDS011;23977;53.078;18.248;2024-02-26T01:05:54;42.22;;;23.98;;
38162;SDS011;23977;53.078;18.248;2024-02-26T01:08:19;41.97;;;23.40;;
38162;SDS011;23977;53.078;18.248;2024-02-26T01:10:45;40.63;;;23.50;;
38162;SDS011;23977;53.078;18.248;2024-02-26T01:13:10;45.40;;;24.92;;
38162;SDS011;23977;53.078;18.248;2024-02-26T01:15:36;40.28;;;22.88;;
38162;SDS011;23977;53.078;18.248;2024-02-26T01:18:01;47.22;;;25.50;;
38162;SDS011;23977;53.078;18.248;2024-02-26T01:20:27;45.45;;;25.10;;
38162;SDS011;23977;53.078;18.248;2024-02-26T01:22:53;52.88;;;26.98;;
38162;SDS011;23977;53.078;18.248;2024-02-26T01:25:18;48.95;;;26.40;;
38162;SDS011;23977;53.078;18.248;2024-02-26T01:27:44;55.88;;;27.63;;
38162;SDS011;23977;53.078;18.248;2024-02-26T01:30:10;51.00;;;27.50;;
38162;SDS011;23977;53.078;18.248;2024-02-26T01:32:35;47.58;;;27.00;;
38162;SDS011;23977;53.078;18.248;2024-02-26T01:35:04;45.72;;;26.08;;
38162;SDS011;23977;53.078;18.248;2024-02-26T01:37:30;52.70;;;27.13;;
38162;SDS011;23977;53.078;18.248;2024-02-26T01:39:56;48.17;;;27.33;;
38162;SDS011;23977;53.078;18.248;2024-02-26T01:42:21;47.10;;;26.15;;
38162;SDS011;23977;53.078;18.248;2024-02-26T01:44:47;43.65;;;24.80;;
38162;SDS011;23977;53.078;18.248;2024-02-26T01:47:12;43.65;;;25.50;;
38162;SDS011;23977;53.078;18.248;2024-02-26T01:49:38;43.40;;;25.17;;
38162;SDS011;23977;53.078;18.248;2024-02-26T01:52:04;40.22;;;23.17;;
38162;SDS011;23977;53.078;18.248;2024-02-26T01:54:31;38.75;;;23.35;;
38162;SDS011;23977;53.078;18.248;2024-02-26T01:56:57;38.05;;;23.48;;
38162;SDS011;23977;53.078;18.248;2024-02-26T01:59:23;39.70;;;23.38;;
38162;SDS011;23977;53.078;18.248;2024-02-26T02:01:50;40.85;;;24.30;;
38162;SDS011;23977;53.078;18.248;2024-02-26T02:04:18;39.38;;;23.63;;
38162;SDS011;23977;53.078;18.248;2024-02-26T02:06:45;39.45;;;24.25;;
38162;SDS011;23977;53.078;18.248;2024-02-26T02:09:11;39.75;;;23.50;;
38162;SDS011;23977;53.078;18.248;2024-02-26T02:11:36;39.85;;;24.13;;
38162;SDS011;23977;53.078;18.248;2024-02-26T02:14:02;41.67;;;24.67;;
38162;SDS011;23977;53.078;18.248;2024-02-26T02:16:27;40.20;;;24.17;;
38162;SDS011;23977;53.078;18.248;2024-02-26T02:18:53;35.97;;;22.55;;
38162;SDS011;23977;53.078;18.248;2024-02-26T02:21:19;49.88;;;24.80;;
38162;SDS011;23977;53.078;18.248;2024-02-26T02:23:44;35.90;;;23.15;;
38162;SDS011;23977;53.078;18.248;2024-02-26T02:26:15;38.90;;;23.73;;
38162;SDS011;23977;53.078;18.248;2024-02-26T02:28:41;37.72;;;22.73;;
38162;SDS011;23977;53.078;18.248;2024-02-26T02:31:06;38.17;;;23.55;;
38162;SDS011;23977;53.078;18.248;2024-02-26T02:33:32;43.60;;;23.75;;
38162;SDS011;23977;53.078;18.248;2024-02-26T02:35:58;44.25;;;23.73;;
38162;SDS011;23977;53.078;18.248;2024-02-26T02:38:24;39.95;;;23.58;;
38162;SDS011;23977;53.078;18.248;2024-02-26T02:40:54;42.67;;;25.38;;
38162;SDS011;23977;53.078;18.248;2024-02-26T02:43:20;47.35;;;25.58;;
38162;SDS011;23977;53.078;18.248;2024-02-26T02:45:45;43.40;;;24.75;;
38162;SDS011;23977;53.078;18.248;2024-02-26T02:48:11;42.63;;;24.63;;
38162;SDS011;23977;53.078;18.248;2024-02-26T02:50:36;42.75;;;24.88;;
38162;SDS011;23977;53.078;18.248;2024-02-26T02:53:02;40.47;;;23.92;;
38162;SDS011;23977;53.078;18.248;2024-02-26T02:55:28;41.88;;;23.95;;
38162;SDS011;23977;53.078;18.248;2024-02-26T02:57:53;43.20;;;24.48;;
38162;SDS011;23977;53.078;18.248;2024-02-26T03:00:19;46.58;;;25.23;;
38162;SDS011;23977;53.078;18.248;2024-02-26T03:02:44;44.30;;;25.23;;
38162;SDS011;23977;53.078;18.248;2024-02-26T03:05:11;43.22;;;24.75;;
38162;SDS011;23977;53.078;18.248;2024-02-26T03:07:37;41.80;;;24.35;;
38162;SDS011;23977;53.078;18.248;2024-02-26T03:10:03;37.58;;;23.40;;
38162;SDS011;23977;53.078;18.248;2024-02-26T03:12:29;38.53;;;22.80;;
38162;SDS011;23977;53.078;18.248;2024-02-26T03:14:55;35.35;;;21.75;;
38162;SDS011;23977;53.078;18.248;2024-02-26T03:17:20;34.88;;;21.30;;
38162;SDS011;23977;53.078;18.248;2024-02-26T03:19:46;35.55;;;20.70;;
38162;SDS011;23977;53.078;18.248;2024-02-26T03:22:15;32.58;;;20.42;;
38162;SDS011;23977;53.078;18.248;2024-02-26T03:24:40;36.28;;;20.65;;
38162;SDS011;23977;53.078;18.248;2024-02-26T03:27:06;35.42;;;21.23;;
38162;SDS011;23977;53.078;18.248;2024-02-26T03:29:37;34.17;;;21.13;;
38162;SDS011;23977;53.078;18.248;2024-02-26T03:32:03;36.58;;;21.38;;
38162;SDS011;23977;53.078;18.248;2024-02-26T03:34:29;34.28;;;20.67;;
38162;SDS011;23977;53.078;18.248;2024-02-26T03:36:56;36.75;;;21.50;;
38162;SDS011;23977;53.078;18.248;2024-02-26T03:39:21;36.47;;;21.58;;
38162;SDS011;23977;53.078;18.248;2024-02-26T03:41:48;34.88;;;21.45;;
38162;SDS011;23977;53.078;18.248;2024-02-26T03:44:13;35.75;;;20.80;;
38162;SDS011;23977;53.078;18.248;2024-02-26T03:46:39;34.63;;;21.08;;
38162;SDS011;23977;53.078;18.248;2024-02-26T03:49:04;38.97;;;21.95;;
38162;SDS011;23977;53.078;18.248;2024-02-26T03:51:30;36.80;;;23.48;;
38162;SDS011;23977;53.078;18.248;2024-02-26T03:53:57;36.53;;;21.80;;
38162;SDS011;23977;53.078;18.248;2024-02-26T03:56:22;36.05;;;21.48;;
38162;SDS011;23977;53.078;18.248;2024-02-26T03:58:48;33.53;;;20.65;;
38162;SDS011;23977;53.078;18.248;2024-02-26T04:01:14;33.92;;;21.15;;
38162;SDS011;23977;53.078;18.248;2024-02-26T04:03:39;37.70;;;21.85;;
38162;SDS011;23977;53.078;18.248;2024-02-26T04:06:08;32.75;;;20.92;;
38162;SDS011;23977;53.078;18.248;2024-02-26T04:08:33;33.35;;;20.98;;
38162;SDS011;23977;53.078;18.248;2024-02-26T04:10:59;33.88;;;20.73;;
38162;SDS011;23977;53.078;18.248;2024-02-26T04:13:25;36.42;;;21.00;;
38162;SDS011;23977;53.078;18.248;2024-02-26T04:15:51;33.25;;;20.30;;
38162;SDS011;23977;53.078;18.248;2024-02-26T04:18:16;33.55;;;20.85;;
38162;SDS011;23977;53.078;18.248;2024-02-26T04:20:42;41.13;;;22.70;;
38162;SDS011;23977;53.078;18.248;2024-02-26T04:23:07;40.22;;;22.08;;
38162;SDS011;23977;53.078;18.248;2024-02-26T04:25:33;45.72;;;23.60;;
38162;SDS011;23977;53.078;18.248;2024-02-26T04:27:58;46.72;;;23.40;;
38162;SDS011;23977;53.078;18.248;2024-02-26T04:30:24;41.03;;;21.77;;
38162;SDS011;23977;53.078;18.248;2024-02-26T04:32:50;41.72;;;21.20;;
38162;SDS011;23977;53.078;18.248;2024-02-26T04:35:15;41.40;;;22.13;;
38162;SDS011;23977;53.078;18.248;2024-02-26T04:37:41;37.00;;;20.52;;
38162;SDS011;23977;53.078;18.248;2024-02-26T04:40:06;38.83;;;20.10;;
38162;SDS011;23977;53.078;18.248;2024-02-26T04:42:33;33.78;;;19.05;;
38162;SDS011;23977;53.078;18.248;2024-02-26T04:44:58;37.60;;;20.60;;
38162;SDS011;23977;53.078;18.248;2024-02-26T04:47:24;38.75;;;21.05;;
38162;SDS011;23977;53.078;18.248;2024-02-26T04:49:50;37.70;;;19.88;;
38162;SDS011;23977;53.078;18.248;2024-02-26T04:52:15;36.65;;;20.55;;
38162;SDS011;23977;53.078;18.248;2024-02-26T04:54:41;38.72;;;19.85;;
38162;SDS011;23977;53.078;18.248;2024-02-26T04:57:06;41.47;;;20.60;;
38162;SDS011;23977;53.078;18.248;2024-02-26T04:59:32;38.03;;;20.05;;
38162;SDS011;23977;53.078;18.248;2024-02-26T05:01:57;37.00;;;20.55;;
38162;SDS011;23977;53.078;18.248;2024-02-26T05:04:23;41.13;;;20.75;;
38162;SDS011;23977;53.078;18.248;2024-02-26T05:06:48;38.35;;;19.88;;
38162;SDS011;23977;53.078;18.248;2024-02-26T05:09:14;36.38;;;19.33;;
38162;SDS011;23977;53.078;18.248;2024-02-26T05:11:39;40.65;;;19.98;;
38162;SDS011;23977;53.078;18.248;2024-02-26T05:14:05;33.72;;;20.08;;
38162;SDS011;23977;53.078;18.248;2024-02-26T05:16:31;37.50;;;20.98;;
38162;SDS011;23977;53.078;18.248;2024-02-26T05:18:57;35.25;;;19.73;;
38162;SDS011;23977;53.078;18.248;2024-02-26T05:21:22;30.95;;;18.95;;
38162;SDS011;23977;53.078;18.248;2024-02-26T05:23:48;32.03;;;19.23;;
38162;SDS011;23977;53.078;18.248;2024-02-26T05:26:23;32.53;;;18.92;;
38162;SDS011;23977;53.078;18.248;2024-02-26T05:28:49;38.95;;;20.90;;
38162;SDS011;23977;53.078;18.248;2024-02-26T05:31:14;39.15;;;19.52;;
38162;SDS011;23977;53.078;18.248;2024-02-26T05:33:41;34.90;;;20.27;;
38162;SDS011;23977;53.078;18.248;2024-02-26T05:36:07;39.45;;;20.85;;
38162;SDS011;23977;53.078;18.248;2024-02-26T05:38:33;41.58;;;20.48;;
38162;SDS011;23977;53.078;18.248;2024-02-26T05:40:58;40.83;;;20.17;;
38162;SDS011;23977;53.078;18.248;2024-02-26T05:43:24;47.47;;;20.40;;
38162;SDS011;23977;53.078;18.248;2024-02-26T05:45:50;41.20;;;20.63;;
38162;SDS011;23977;53.078;18.248;2024-02-26T05:48:16;40.38;;;21.05;;
38162;SDS011;23977;53.078;18.248;2024-02-26T05:50:41;38.55;;;21.55;;
38162;SDS011;23977;53.078;18.248;2024-02-26T05:53:07;41.65;;;23.77;;
38162;SDS011;23977;53.078;18.248;2024-02-26T05:55:32;41.63;;;23.05;;
38162;SDS011;23977;53.078;18.248;2024-02-26T05:57:58;46.92;;;23.00;;
38162;SDS011;23977;53.078;18.248;2024-02-26T06:00:23;52.50;;;23.58;;
38162;SDS011;23977;53.078;18.248;2024-02-26T06:02:49;43.28;;;23.17;;
38162;SDS011;23977;53.078;18.248;2024-02-26T06:05:14;41.15;;;22.55;;
38162;SDS011;23977;53.078;18.248;2024-02-26T06:07:40;42.45;;;23.88;;
38162;SDS011;23977;53.078;18.248;2024-02-26T06:10:05;55.60;;;26.40;;
38162;SDS011;23977;53.078;18.248;2024-02-26T06:12:31;66.55;;;26.15;;
38162;SDS011;23977;53.078;18.248;2024-02-26T06:14:57;45.72;;;26.35;;
38162;SDS011;23977;53.078;18.248;2024-02-26T06:17:26;47.72;;;26.95;;
38162;SDS011;23977;53.078;18.248;2024-02-26T06:19:52;54.05;;;26.48;;
38162;SDS011;23977;53.078;18.248;2024-02-26T06:22:18;63.10;;;27.00;;
38162;SDS011;23977;53.078;18.248;2024-02-26T06:24:44;48.25;;;27.05;;
38162;SDS011;23977;53.078;18.248;2024-02-26T06:27:09;48.03;;;26.65;;
38162;SDS011;23977;53.078;18.248;2024-02-26T06:29:35;46.55;;;26.77;;
38162;SDS011;23977;53.078;18.248;2024-02-26T06:32:00;68.45;;;27.38;;
38162;SDS011;23977;53.078;18.248;2024-02-26T06:34:26;54.70;;;26.70;;
38162;SDS011;23977;53.078;18.248;2024-02-26T06:36:52;55.30;;;25.73;;
38162;SDS011;23977;53.078;18.248;2024-02-26T06:39:17;49.42;;;25.52;;
38162;SDS011;23977;53.078;18.248;2024-02-26T06:41:43;54.00;;;26.60;;
38162;SDS011;23977;53.078;18.248;2024-02-26T06:44:09;44.58;;;26.23;;
38162;SDS011;23977;53.078;18.248;2024-02-26T06:46:34;50.55;;;26.40;;
38162;SDS011;23977;53.078;18.248;2024-02-26T06:49:00;47.92;;;25.85;;
38162;SDS011;23977;53.078;18.248;2024-02-26T06:51:25;40.15;;;25.20;;
38162;SDS011;23977;53.078;18.248;2024-02-26T06:53:51;49.25;;;26.75;;
38162;SDS011;23977;53.078;18.248;2024-02-26T06:56:17;42.47;;;24.75;;
38162;SDS011;23977;53.078;18.248;2024-02-26T06:58:42;38.63;;;24.13;;
38162;SDS011;23977;53.078;18.248;2024-02-26T07:01:08;46.17;;;22.08;;
38162;SDS011;23977;53.078;18.248;2024-02-26T07:03:34;41.83;;;22.08;;
38162;SDS011;23977;53.078;18.248;2024-02-26T07:06:00;34.97;;;20.90;;
38162;SDS011;23977;53.078;18.248;2024-02-26T07:08:25;41.85;;;19.88;;
38162;SDS011;23977;53.078;18.248;2024-02-26T07:10:51;41.50;;;21.30;;
38162;SDS011;23977;53.078;18.248;2024-02-26T07:13:17;45.78;;;22.52;;
38162;SDS011;23977;53.078;18.248;2024-02-26T07:15:42;48.03;;;22.60;;
38162;SDS011;23977;53.078;18.248;2024-02-26T07:18:08;38.63;;;23.48;;
38162;SDS011;23977;53.078;18.248;2024-02-26T07:20:34;45.58;;;22.77;;
38162;SDS011;23977;53.078;18.248;2024-02-26T07:22:59;50.00;;;22.95;;
38162;SDS011;23977;53.078;18.248;2024-02-26T07:25:25;51.72;;;23.08;;
38162;SDS011;23977;53.078;18.248;2024-02-26T07:27:50;50.53;;;22.00;;
38162;SDS011;23977;53.078;18.248;2024-02-26T07:30:16;49.53;;;23.08;;
38162;SDS011;23977;53.078;18.248;2024-02-26T07:32:42;38.90;;;22.55;;
38162;SDS011;23977;53.078;18.248;2024-02-26T07:35:08;59.28;;;25.90;;
38162;SDS011;23977;53.078;18.248;2024-02-26T07:37:34;40.40;;;23.42;;
38162;SDS011;23977;53.078;18.248;2024-02-26T07:40:00;45.78;;;22.83;;
38162;SDS011;23977;53.078;18.248;2024-02-26T07:42:26;44.92;;;22.10;;
38162;SDS011;23977;53.078;18.248;2024-02-26T07:44:52;34.28;;;20.83;;
38162;SDS011;23977;53.078;18.248;2024-02-26T07:47:18;38.60;;;22.52;;
38162;SDS011;23977;53.078;18.248;2024-02-26T07:49:44;33.20;;;21.45;;
38162;SDS011;23977;53.078;18.248;2024-02-26T07:52:10;34.53;;;21.13;;
38162;SDS011;23977;53.078;18.248;2024-02-26T07:54:36;32.35;;;22.52;;
38162;SDS011;23977;53.078;18.248;2024-02-26T07:57:01;37.33;;;23.75;;
38162;SDS011;23977;53.078;18.248;2024-02-26T07:59:31;37.75;;;25.20;;
38162;SDS011;23977;53.078;18.248;2024-02-26T08:01:56;47.90;;;33.00;;
38162;SDS011;23977;53.078;18.248;2024-02-26T08:04:22;41.40;;;28.63;;
38162;SDS011;23977;53.078;18.248;2024-02-26T08:06:47;45.05;;;27.60;;
38162;SDS011;23977;53.078;18.248;2024-02-26T08:09:13;52.28;;;27.40;;
38162;SDS011;23977;53.078;18.248;2024-02-26T08:11:39;45.15;;;26.67;;
38162;SDS011;23977;53.078;18.248;2024-02-26T08:14:04;46.03;;;28.08;;
38162;SDS011;23977;53.078;18.248;2024-02-26T08:16:30;40.03;;;26.52;;
38162;SDS011;23977;53.078;18.248;2024-02-26T08:18:55;39.90;;;26.67;;
38162;SDS011;23977;53.078;18.248;2024-02-26T08:21:21;32.85;;;23.55;;
38162;SDS011;23977;53.078;18.248;2024-02-26T08:23:47;31.05;;;22.00;;
38162;SDS011;23977;53.078;18.248;2024-02-26T08:26:12;39.60;;;25.95;;
38162;SDS011;23977;53.078;18.248;2024-02-26T08:28:38;33.13;;;22.73;;
38162;SDS011;23977;53.078;18.248;2024-02-26T08:31:03;28.95;;;20.65;;
38162;SDS011;23977;53.078;18.248;2024-02-26T08:33:29;32.33;;;22.80;;
38162;SDS011;23977;53.078;18.248;2024-02-26T08:35:57;30.17;;;21.58;;
38162;SDS011;23977;53.078;18.248;2024-02-26T08:38:24;30.85;;;22.13;;
38162;SDS011;23977;53.078;18.248;2024-02-26T08:40:49;27.20;;;20.38;;
38162;SDS011;23977;53.078;18.248;2024-02-26T08:43:15;29.83;;;21.80;;
38162;SDS011;23977;53.078;18.248;2024-02-26T08:45:40;30.52;;;22.48;;
38162;SDS011;23977;53.078;18.248;2024-02-26T08:48:06;31.52;;;24.05;;
38162;SDS011;23977;53.078;18.248;2024-02-26T08:50:31;27.25;;;22.83;;
38162;SDS011;23977;53.078;18.248;2024-02-26T08:52:57;30.80;;;23.95;;
38162;SDS011;23977;53.078;18.248;2024-02-26T08:55:23;30.40;;;24.20;;
38162;SDS011;23977;53.078;18.248;2024-02-26T08:57:49;26.80;;;22.05;;
38162;SDS011;23977;53.078;18.248;2024-02-26T09:00:21;27.73;;;20.77;;
38162;SDS011;23977;53.078;18.248;2024-02-26T09:02:47;26.92;;;21.35;;
38162;SDS011;23977;53.078;18.248;2024-02-26T09:05:13;23.67;;;19.25;;
38162;SDS011;23977;53.078;18.248;2024-02-26T09:07:39;28.40;;;20.55;;
38162;SDS011;23977;53.078;18.248;2024-02-26T09:10:05;25.42;;;20.38;;
38162;SDS011;23977;53.078;18.248;2024-02-26T09:12:31;24.95;;;20.70;;
38162;SDS011;23977;53.078;18.248;2024-02-26T09:14:56;24.23;;;20.40;;
38162;SDS011;23977;53.078;18.248;2024-02-26T09:17:23;26.98;;;20.17;;
38162;SDS011;23977;53.078;18.248;2024-02-26T09:19:48;24.92;;;20.13;;
38162;SDS011;23977;53.078;18.248;2024-02-26T09:22:14;27.95;;;20.50;;
38162;SDS011;23977;53.078;18.248;2024-02-26T09:24:39;24.23;;;19.80;;
38162;SDS011;23977;53.078;18.248;2024-02-26T09:27:05;24.05;;;19.65;;
38162;SDS011;23977;53.078;18.248;2024-02-26T09:29:31;27.85;;;19.77;;
38162;SDS011;23977;53.078;18.248;2024-02-26T09:31:56;24.70;;;19.60;;
38162;SDS011;23977;53.078;18.248;2024-02-26T09:34:22;23.67;;;19.45;;
38162;SDS011;23977;53.078;18.248;2024-02-26T09:36:47;25.45;;;19.98;;
38162;SDS011;23977;53.078;18.248;2024-02-26T09:39:13;22.90;;;18.88;;
38162;SDS011;23977;53.078;18.248;2024-02-26T09:41:40;21.75;;;18.38;;
38162;SDS011;23977;53.078;18.248;2024-02-26T09:44:05;21.73;;;17.27;;
38162;SDS011;23977;53.078;18.248;2024-02-26T09:46:31;18.88;;;16.35;;
38162;SDS011;23977;53.078;18.248;2024-02-26T09:48:57;23.05;;;18.20;;
38162;SDS011;23977;53.078;18.248;2024-02-26T09:51:23;20.60;;;17.35;;
38162;SDS011;23977;53.078;18.248;2024-02-26T09:53:51;22.63;;;17.60;;
38162;SDS011;23977;53.078;18.248;2024-02-26T09:56:17;18.73;;;15.88;;
38162;SDS011;23977;53.078;18.248;2024-02-26T09:58:43;21.30;;;16.80;;
38162;SDS011;23977;53.078;18.248;2024-02-26T10:01:13;20.55;;;17.38;;
38162;SDS011;23977;53.078;18.248;2024-02-26T10:03:56;18.02;;;14.57;;
38162;SDS011;23977;53.078;18.248;2024-02-26T10:06:28;24.98;;;16.80;;
38162;SDS011;23977;53.078;18.248;2024-02-26T10:08:57;22.27;;;16.67;;
38162;SDS011;23977;53.078;18.248;2024-02-26T10:11:28;22.02;;;16.80;;
38162;SDS011;23977;53.078;18.248;2024-02-26T10:14:00;23.00;;;15.95;;
38162;SDS011;23977;53.078;18.248;2024-02-26T10:16:32;19.30;;;15.35;;
38162;SDS011;23977;53.078;18.248;2024-02-26T10:19:24;20.60;;;14.57;;
38162;SDS011;23977;53.078;18.248;2024-02-26T10:21:52;19.35;;;14.48;;
38162;SDS011;23977;53.078;18.248;2024-02-26T10:24:18;21.00;;;17.20;;
38162;SDS011;23977;53.078;18.248;2024-02-26T10:26:51;21.67;;;16.90;;
38162;SDS011;23977;53.078;18.248;2024-02-26T10:29:27;21.35;;;16.45;;
38162;SDS011;23977;53.078;18.248;2024-02-26T10:31:54;22.58;;;19.45;;
38162;SDS011;23977;53.078;18.248;2024-02-26T10:34:21;21.02;;;13.85;;
38162;SDS011;23977;53.078;18.248;2024-02-26T10:36:47;18.10;;;14.00;;
38162;SDS011;23977;53.078;18.248;2024-02-26T10:39:13;19.17;;;12.95;;
38162;SDS011;23977;53.078;18.248;2024-02-26T10:41:49;18.88;;;13.02;;
38162;SDS011;23977;53.078;18.248;2024-02-26T10:44:15;17.42;;;11.90;;
38162;SDS011;23977;53.078;18.248;2024-02-26T10:46:41;18.33;;;11.98;;
38162;SDS011;23977;53.078;18.248;2024-02-26T10:49:13;20.98;;;13.40;;
38162;SDS011;23977;53.078;18.248;2024-02-26T10:51:44;20.05;;;13.05;;
38162;SDS011;23977;53.078;18.248;2024-02-26T10:54:09;21.75;;;13.43;;
38162;SDS011;23977;53.078;18.248;2024-02-26T10:56:40;20.02;;;13.23;;
38162;SDS011;23977;53.078;18.248;2024-02-26T10:59:15;18.88;;;12.48;;
38162;SDS011;23977;53.078;18.248;2024-02-26T11:01:47;20.92;;;12.85;;
38162;SDS011;23977;53.078;18.248;2024-02-26T11:04:16;21.10;;;12.85;;
38162;SDS011;23977;53.078;18.248;2024-02-26T11:06:52;22.85;;;13.65;;
38162;SDS011;23977;53.078;18.248;2024-02-26T11:09:29;19.20;;;12.80;;
38162;SDS011;23977;53.078;18.248;2024-02-26T11:11:56;19.30;;;12.20;;
38162;SDS011;23977;53.078;18.248;2024-02-26T11:14:31;17.88;;;11.77;;
38162;SDS011;23977;53.078;18.248;2024-02-26T11:17:03;19.65;;;12.77;;
38162;SDS011;23977;53.078;18.248;2024-02-26T11:19:38;17.05;;;11.45;;
38162;SDS011;23977;53.078;18.248;2024-02-26T11:22:11;21.38;;;13.60;;
38162;SDS011;23977;53.078;18.248;2024-02-26T11:24:37;20.42;;;13.55;;
38162;SDS011;23977;53.078;18.248;2024-02-26T11:27:07;21.38;;;13.98;;
38162;SDS011;23977;53.078;18.248;2024-02-26T11:29:34;21.98;;;13.75;;
38162;SDS011;23977;53.078;18.248;2024-02-26T11:32:03;20.50;;;13.68;;
38162;SDS011;23977;53.078;18.248;2024-02-26T11:34:28;21.20;;;13.68;;
38162;SDS011;23977;53.078;18.248;2024-02-26T11:36:54;19.63;;;13.45;;
38162;SDS011;23977;53.078;18.248;2024-02-26T11:39:20;20.13;;;13.00;;
38162;SDS011;23977;53.078;18.248;2024-02-26T11:41:46;21.05;;;13.38;;
38162;SDS011;23977;53.078;18.248;2024-02-26T11:44:12;21.00;;;14.05;;
38162;SDS011;23977;53.078;18.248;2024-02-26T11:46:41;22.90;;;14.70;;
38162;SDS011;23977;53.078;18.248;2024-02-26T11:51:52;20.45;;;13.50;;
38162;SDS011;23977;53.078;18.248;2024-02-26T11:57:04;21.88;;;13.57;;
38162;SDS011;23977;53.078;18.248;2024-02-26T11:59:44;20.48;;;13.20;;
38162;SDS011;23977;53.078;18.248;2024-02-26T12:02:11;20.33;;;13.50;;
38162;SDS011;23977;53.078;18.248;2024-02-26T12:04:38;21.83;;;13.18;;
38162;SDS011;23977;53.078;18.248;2024-02-26T12:07:04;18.83;;;12.00;;
38162;SDS011;23977;53.078;18.248;2024-02-26T12:09:39;18.08;;;11.70;;
38162;SDS011;23977;53.078;18.248;2024-02-26T12:12:07;15.90;;;10.77;;
38162;SDS011;23977;53.078;18.248;2024-02-26T12:14:33;16.75;;;10.98;;
38162;SDS011;23977;53.078;18.248;2024-02-26T12:17:00;17.38;;;11.18;;
38162;SDS011;23977;53.078;18.248;2024-02-26T12:19:25;17.65;;;10.57;;
38162;SDS011;23977;53.078;18.248;2024-02-26T12:21:52;17.15;;;10.55;;
38162;SDS011;23977;53.078;18.248;2024-02-26T12:24:20;15.68;;;9.57;;
38162;SDS011;23977;53.078;18.248;2024-02-26T12:26:46;15.70;;;9.82;;
38162;SDS011;23977;53.078;18.248;2024-02-26T12:29:12;18.08;;;11.27;;
38162;SDS011;23977;53.078;18.248;2024-02-26T12:31:39;24.45;;;16.60;;
38162;SDS011;23977;53.078;18.248;2024-02-26T12:34:05;17.85;;;10.90;;
38162;SDS011;23977;53.078;18.248;2024-02-26T12:36:31;15.38;;;9.93;;
38162;SDS011;23977;53.078;18.248;2024-02-26T12:38:57;14.80;;;9.68;;
38162;SDS011;23977;53.078;18.248;2024-02-26T12:41:23;14.75;;;10.63;;
38162;SDS011;23977;53.078;18.248;2024-02-26T12:43:49;14.43;;;9.43;;
38162;SDS011;23977;53.078;18.248;2024-02-26T12:46:15;13.10;;;8.85;;
38162;SDS011;23977;53.078;18.248;2024-02-26T12:48:44;14.98;;;9.55;;
38162;SDS011;23977;53.078;18.248;2024-02-26T12:51:14;13.95;;;9.45;;
38162;SDS011;23977;53.078;18.248;2024-02-26T12:53:40;15.60;;;9.73;;
38162;SDS011;23977;53.078;18.248;2024-02-26T12:56:06;13.13;;;8.52;;
38162;SDS011;23977;53.078;18.248;2024-02-26T12:58:33;14.93;;;9.48;;
38162;SDS011;23977;53.078;18.248;2024-02-26T13:00:58;14.23;;;8.93;;
38162;SDS011;23977;53.078;18.248;2024-02-26T13:03:24;12.15;;;8.07;;
38162;SDS011;23977;53.078;18.248;2024-02-26T13:05:50;14.57;;;9.05;;
38162;SDS011;23977;53.078;18.248;2024-02-26T13:08:19;13.10;;;8.45;;
38162;SDS011;23977;53.078;18.248;2024-02-26T13:10:46;13.32;;;8.13;;
38162;SDS011;23977;53.078;18.248;2024-02-26T13:13:12;12.27;;;7.80;;
38162;SDS011;23977;53.078;18.248;2024-02-26T13:15:39;10.70;;;7.10;;
38162;SDS011;23977;53.078;18.248;2024-02-26T13:18:11;9.68;;;7.40;;
38162;SDS011;23977;53.078;18.248;2024-02-26T13:20:37;11.65;;;7.47;;
38162;SDS011;23977;53.078;18.248;2024-02-26T13:23:06;9.73;;;7.10;;
38162;SDS011;23977;53.078;18.248;2024-02-26T13:25:32;12.70;;;6.82;;
38162;SDS011;23977;53.078;18.248;2024-02-26T13:28:31;9.30;;;6.38;;
38162;SDS011;23977;53.078;18.248;2024-02-26T13:30:56;12.35;;;7.10;;
38162;SDS011;23977;53.078;18.248;2024-02-26T13:33:22;12.40;;;7.72;;
38162;SDS011;23977;53.078;18.248;2024-02-26T13:35:48;13.70;;;7.45;;
38162;SDS011;23977;53.078;18.248;2024-02-26T13:38:14;11.48;;;7.75;;
38162;SDS011;23977;53.078;18.248;2024-02-26T13:40:39;10.40;;;7.40;;
38162;SDS011;23977;53.078;18.248;2024-02-26T13:43:05;11.27;;;7.20;;
38162;SDS011;23977;53.078;18.248;2024-02-26T13:45:35;11.13;;;7.65;;
38162;SDS011;23977;53.078;18.248;2024-02-26T13:48:01;12.70;;;6.95;;
38162;SDS011;23977;53.078;18.248;2024-02-26T13:50:27;11.43;;;6.65;;
38162;SDS011;23977;53.078;18.248;2024-02-26T13:52:52;11.25;;;7.03;;
38162;SDS011;23977;53.078;18.248;2024-02-26T13:55:21;10.70;;;7.20;;
38162;SDS011;23977;53.078;18.248;2024-02-26T13:57:48;10.02;;;6.32;;
38162;SDS011;23977;53.078;18.248;2024-02-26T14:00:14;10.52;;;6.68;;
38162;SDS011;23977;53.078;18.248;2024-02-26T14:02:40;11.02;;;7.43;;
38162;SDS011;23977;53.078;18.248;2024-02-26T14:05:05;12.48;;;8.02;;
38162;SDS011;23977;53.078;18.248;2024-02-26T14:07:31;12.30;;;7.57;;
38162;SDS011;23977;53.078;18.248;2024-02-26T14:09:59;12.70;;;7.75;;
38162;SDS011;23977;53.078;18.248;2024-02-26T14:12:25;12.15;;;8.52;;